Orangevale, California
Current Conditions -  °F | °C
As of 3:47 PM on Friday 24 Oct 2014 (Local Time) from KMHR Reporting Station
Few Clouds Few Clouds  
Wind Chill: 77°   Ceiling: Unl
Heat Index: 78°   Visibility: 10mi
Dew Point: 52°   Wind: 7mph
Humidity: 41%   Direction: 220°SW
Pressure: 29.87"   Gusts: NA
Location:  38.68°N, 121.22°W
Report Text: KMHR 242247Z 22006KT 10SM FEW200 25/11 A2987
Loading
Personal Weather Stations






























Interactive Weather Map
Tropical Storm Tracking
New forecast layout! Learn more

10-Day Weather Forecast

Advertisements
Track Severe Weather on mobile